Newport Municipal Airport
KONP : now visible

Airfield :











YOU CAN JOIN US ON...

 
LOGIN :

Register | Disclaimer

   EN    FR    IT 

 









Legend :    VFR   Marginal VFR   IFR   Intensive IFR   Very Intensive IFR
Visi :
Ceiling :
>= 8 km
>= 3000ft
5 to 8 km
1000 to 3000 ft
1500m to 5 km
500 to 1000 ft
800 to 1500m
200 to 500 ft
< 800m
< 200 ft
Symbols :   Thunderstorms  Fog  Heavy snow  Heavy precipitations  Wind > 20 kt






- Airport Elevation : 160 ft


KONP - Newport Municipal

CURRENT METAR :
  • 060415Z AUTO 34006KT 1/2SM -DZ OVC003 12/12 A3016 RMK AO2

EXPIRED METARs :
  • 060355Z AUTO 35007G14KT 1/2SM -RA OVC003 12/12 A3016 RMK AO2
  • 060335Z AUTO 34008KT 1/2SM FG OVC003 12/12 A3015 RMK AO2
  • 060255Z AUTO 35003KT 1SM BR OVC003 12/12 A3014 RMK AO2
  • 060215Z AUTO 35003KT 3/4SM BR OVC003 12/12 A3013 RMK AO2
  • 060135Z AUTO 34009KT 1/4SM FG OVC003 12/12 A3013 RMK AO2

TAF KONP
Valid from the 06 at 02:00 until the 07 at 00:00 UTC


060146Z 0602/0624 34008KT 1/2SM FG OVC002
FM060600 VRB04KT 1/4SM FG OVC002
FM061800 VRB03KT 3SM BR BKN002
KZSE FIR / North America



MET'MAP, your aeronautical weather chart ! - Copyright ORBIFLY December 2007 - Disclaimer

ORBIFLY MET'MAP TEAM :

Programming & Development : Alexandra Zaïnal
Original concept : Baudouin d'Aumeries
Technical & hardware support : Manuel Goepfert
Assistance : Marc-Olivier Méhu




SOURCES & CREDITS :

   NOAA       Earth
Advisory